createdAt,value
2023-04-05T00:00:23.904Z,73.23
2023-04-05T00:05:34.470Z,74.90
2023-04-05T00:10:36.290Z,74.05
2023-04-05T00:15:37.939Z,71.94
2023-04-05T00:20:39.769Z,71.29
2023-04-05T00:25:41.536Z,73.07
2023-04-05T00:30:43.417Z,74.09
2023-04-05T00:35:45.294Z,75.46
2023-04-05T00:40:46.918Z,73.80
2023-04-05T00:45:48.581Z,76.18
2023-04-05T00:50:51.264Z,76.35
2023-04-05T00:55:53.290Z,73.93
2023-04-05T01:01:01.864Z,75.78
2023-04-05T01:06:31.174Z,74.88
2023-04-05T01:11:34.063Z,74.98
2023-04-05T01:16:35.686Z,74.63
2023-04-05T01:21:40.451Z,74.51
2023-04-05T01:27:10.097Z,72.84
2023-04-05T01:32:22.158Z,73.65
2023-04-05T01:37:30.703Z,72.42
2023-04-05T01:42:32.320Z,72.55
2023-04-05T01:47:33.969Z,73.91
2023-04-05T01:52:36.062Z,74.77
2023-04-05T01:57:39.071Z,74.92
2023-04-05T02:02:41.239Z,74.48
2023-04-05T02:07:43.729Z,76.14
2023-04-05T02:12:45.439Z,77.00
2023-04-05T02:17:47.620Z,76.87
2023-04-05T02:22:49.278Z,77.09
2023-04-05T02:27:50.993Z,74.74
2023-04-05T02:32:52.649Z,76.02
2023-04-05T02:37:54.296Z,76.75
2023-04-05T02:42:56.134Z,78.24
2023-04-05T02:47:57.861Z,77.88
2023-04-05T02:53:00.870Z,78.83
2023-04-05T02:58:04.160Z,77.37
2023-04-05T03:03:14.356Z,77.50
2023-04-05T03:08:23.830Z,79.57
2023-04-05T03:13:36.017Z,79.82
2023-04-05T03:18:41.185Z,77.55
2023-04-05T03:23:48.589Z,80.27
2023-04-05T03:28:54.495Z,79.52
2023-04-05T03:34:02.938Z,79.64
2023-04-05T03:39:13.861Z,79.08
2023-04-05T03:44:15.610Z,77.82
2023-04-05T03:49:20.023Z,79.18
2023-04-05T03:54:22.055Z,80.03
2023-04-05T03:59:24.928Z,78.18
2023-04-05T04:04:28.163Z,79.45
2023-04-05T04:09:31.172Z,77.45
2023-04-05T04:14:40.388Z,79.37
2023-04-05T04:20:00.953Z,79.61
2023-04-05T04:25:20.373Z,77.39
2023-04-05T04:30:34.976Z,79.53
2023-04-05T04:35:49.589Z,78.92
2023-04-05T04:41:08.203Z,78.64
2023-04-05T04:46:42.887Z,77.93
2023-04-05T04:51:50.442Z,75.92
2023-04-05T04:56:55.999Z,74.57
2023-04-05T05:01:57.642Z,74.82
2023-04-05T05:06:59.240Z,74.71
2023-04-05T05:12:01.803Z,74.00
2023-04-05T05:17:05.367Z,72.08
2023-04-05T05:22:07.168Z,73.18
2023-04-05T05:27:08.828Z,72.14
2023-04-05T05:32:14.477Z,70.28
2023-04-05T05:37:17.279Z,69.85
2023-04-05T05:42:19.175Z,68.88
2023-04-05T05:47:21.091Z,66.45
2023-04-05T05:52:22.791Z,65.97
2023-04-05T05:57:24.474Z,62.34
2023-04-05T06:02:26.407Z,62.94
2023-04-05T06:07:28.867Z,51.26
2023-04-05T06:12:30.494Z,52.25
2023-04-05T06:17:34.197Z,55.53
2023-04-05T06:22:36.621Z,58.35
2023-04-05T06:27:38.270Z,54.56
2023-04-05T06:32:39.862Z,50.30
2023-04-05T06:37:42.158Z,50.67
2023-04-05T06:42:44.073Z,48.28
2023-04-05T06:47:50.220Z,49.07
2023-04-05T06:52:51.834Z,48.34
2023-04-05T06:57:53.419Z,51.01
2023-04-05T07:02:55.082Z,49.35
2023-04-05T07:07:57.004Z,48.72
2023-04-05T07:12:58.671Z,49.54
2023-04-05T07:18:00.372Z,47.78
2023-04-05T07:23:02.480Z,46.41
2023-04-05T07:28:04.150Z,44.70
2023-04-05T07:33:05.782Z,43.28
2023-04-05T07:38:07.428Z,41.83
2023-04-05T07:43:09.036Z,40.34
2023-04-05T07:48:11.038Z,41.42
2023-04-05T07:53:12.743Z,39.84
2023-04-05T07:58:14.482Z,38.33
2023-04-05T08:03:16.104Z,37.81
2023-04-05T08:08:17.782Z,40.31
2023-04-05T08:13:19.417Z,45.35
2023-04-05T08:18:21.117Z,46.07
2023-04-05T08:23:23.549Z,48.61
2023-04-05T08:28:25.158Z,49.47
2023-04-05T08:33:28.484Z,39.56
2023-04-05T08:38:30.223Z,41.04
2023-04-05T08:43:55.308Z,46.30
2023-04-05T08:48:58.248Z,51.46
2023-04-05T08:54:01.178Z,52.85
2023-04-05T08:59:08.421Z,51.95
2023-04-05T09:04:15.777Z,52.98
2023-04-05T09:09:20.457Z,51.13
2023-04-05T09:14:22.226Z,52.55
2023-04-05T09:19:24.127Z,52.04
2023-04-05T09:24:37.027Z,51.74
2023-04-05T09:29:40.642Z,50.85
2023-04-05T09:34:44.087Z,44.74
2023-04-05T09:40:03.937Z,38.17
2023-04-05T09:45:07.366Z,35.65
2023-04-05T09:50:20.805Z,44.04
2023-04-05T09:55:29.039Z,48.03
2023-04-05T10:00:32.430Z,47.97
2023-04-05T10:05:34.182Z,46.08
2023-04-05T10:10:46.151Z,49.64
2023-04-05T10:15:52.085Z,50.18
2023-04-05T10:20:57.689Z,51.70
2023-04-05T10:26:08.146Z,52.15
2023-04-05T10:31:54.433Z,51.47
2023-04-05T10:37:02.282Z,47.06
2023-04-05T10:42:06.733Z,42.36
2023-04-05T10:47:14.006Z,40.42
2023-04-05T10:52:17.667Z,36.34
2023-04-05T10:57:21.477Z,38.03
2023-04-05T11:02:23.561Z,40.55
2023-04-05T11:07:25.539Z,41.31
2023-04-05T11:12:45.643Z,36.36
2023-04-05T11:18:16.805Z,37.13
2023-04-05T11:23:21.692Z,40.77
2023-04-05T11:28:30.529Z,44.63
2023-04-05T11:33:55.313Z,47.04
2023-04-05T11:39:19.535Z,49.41
2023-04-05T11:44:22.171Z,48.95
2023-04-05T11:49:25.807Z,49.48
2023-04-05T11:54:33.973Z,49.29
2023-04-05T11:59:36.520Z,47.06
2023-04-05T12:04:38.895Z,46.51
2023-04-05T12:09:58.851Z,46.59
2023-04-05T12:15:02.056Z,47.53
2023-04-05T12:20:04.291Z,47.53
2023-04-05T12:25:06.765Z,51.42
2023-04-05T12:30:36.210Z,49.45
2023-04-05T12:35:39.693Z,48.01
2023-04-05T12:40:41.661Z,48.02
2023-04-05T12:45:44.542Z,49.60
2023-04-05T12:50:48.568Z,52.12
2023-04-05T12:55:57.190Z,52.28
2023-04-05T13:00:59.044Z,52.62
2023-04-05T13:06:00.750Z,51.92
2023-04-05T13:11:02.420Z,52.07
2023-04-05T13:16:04.160Z,50.73
2023-04-05T13:21:08.022Z,51.48
2023-04-05T13:26:09.780Z,52.07
2023-04-05T13:31:13.556Z,50.58
2023-04-05T13:36:16.851Z,50.03
2023-04-05T13:41:18.489Z,47.58
2023-04-05T13:46:20.152Z,46.77
2023-04-05T13:51:21.881Z,45.97
2023-04-05T13:56:23.531Z,44.35
2023-04-05T14:01:25.478Z,47.18
2023-04-05T14:06:27.619Z,46.47
2023-04-05T14:11:29.325Z,46.98
2023-04-05T14:16:31.859Z,48.02
2023-04-05T14:21:33.597Z,50.98
2023-04-05T14:26:35.472Z,53.53
2023-04-05T14:31:37.196Z,53.56
2023-04-05T14:36:38.905Z,54.13
2023-04-05T14:41:41.063Z,52.38
2023-04-05T14:46:42.892Z,52.39
2023-04-05T14:51:45.272Z,53.06
2023-04-05T14:56:49.497Z,53.81
2023-04-05T15:01:51.386Z,54.96
2023-04-05T15:06:53.047Z,57.18
2023-04-05T15:11:56.003Z,57.20
2023-04-05T15:16:57.695Z,59.02
2023-04-05T15:21:59.365Z,60.29
2023-04-05T15:27:03.545Z,56.80
2023-04-05T15:32:05.471Z,56.42
2023-04-05T15:37:07.496Z,55.14
2023-04-05T15:42:09.119Z,54.56
2023-04-05T15:47:13.406Z,53.12
2023-04-05T15:52:15.674Z,54.20
2023-04-05T15:57:17.304Z,59.26
2023-04-05T16:02:19.274Z,59.84
2023-04-05T16:07:20.946Z,60.50
2023-04-05T16:12:22.631Z,59.62
2023-04-05T16:17:25.647Z,59.55
2023-04-05T16:22:27.400Z,58.67
2023-04-05T16:27:29.008Z,60.30
2023-04-05T16:32:30.734Z,62.23
2023-04-05T16:37:32.360Z,61.96
2023-04-05T16:42:33.985Z,57.54
2023-04-05T16:47:35.852Z,57.29
2023-04-05T16:52:37.462Z,56.98
2023-04-05T16:57:39.112Z,56.15
2023-04-05T17:02:40.806Z,52.62
2023-04-05T17:07:42.466Z,52.89
2023-04-05T17:12:45.636Z,53.13
2023-04-05T17:17:47.278Z,52.89
2023-04-05T17:22:50.016Z,53.33
2023-04-05T17:27:51.629Z,56.74
2023-04-05T17:32:53.512Z,57.72
2023-04-05T17:37:55.329Z,62.79
2023-04-05T17:42:56.936Z,62.37
2023-04-05T17:47:58.635Z,62.98
2023-04-05T17:53:00.426Z,62.77
2023-04-05T17:58:02.122Z,65.58
2023-04-05T18:03:07.967Z,67.45
2023-04-05T18:08:10.213Z,67.18
2023-04-05T18:13:12.159Z,70.37
2023-04-05T18:18:13.820Z,72.29
2023-04-05T18:23:15.808Z,72.18
2023-04-05T18:28:22.618Z,73.35
2023-04-05T18:33:24.765Z,74.48
2023-04-05T18:38:26.543Z,73.74
2023-04-05T18:43:28.187Z,73.91
2023-04-05T18:48:29.844Z,74.50
2023-04-05T18:53:31.445Z,72.47
2023-04-05T18:58:33.195Z,72.41
2023-04-05T19:03:35.078Z,72.82
2023-04-05T19:08:36.869Z,74.33
2023-04-05T19:13:38.461Z,74.02
2023-04-05T19:18:40.052Z,74.84
2023-04-05T19:23:42.088Z,75.49
2023-04-05T19:28:43.673Z,72.55
2023-04-05T19:33:45.274Z,73.36
2023-04-05T19:38:47.124Z,73.10
2023-04-05T19:43:50.385Z,75.04
2023-04-05T19:48:52.056Z,74.44
2023-04-05T19:53:54.073Z,75.47
2023-04-05T19:59:03.301Z,74.82
2023-04-05T20:04:12.715Z,75.04
2023-04-05T20:09:18.186Z,76.09
2023-04-05T20:14:26.693Z,77.01
2023-04-05T20:19:30.705Z,78.07
2023-04-05T20:24:32.410Z,77.45
2023-04-05T20:29:36.261Z,76.89
2023-04-05T20:34:38.350Z,76.81
2023-04-05T20:39:40.063Z,77.29
2023-04-05T20:44:41.726Z,78.68
2023-04-05T20:49:44.589Z,78.99
2023-04-05T20:54:47.581Z,78.53
2023-04-05T20:59:49.218Z,78.85
2023-04-05T21:04:51.089Z,79.79
2023-04-05T21:09:52.750Z,79.61
2023-04-05T21:14:54.332Z,78.79
2023-04-05T21:19:56.423Z,80.64
2023-04-05T21:24:58.023Z,79.31
2023-04-05T21:29:59.940Z,81.83
2023-04-05T21:35:01.626Z,81.56
2023-04-05T21:40:04.242Z,80.27
2023-04-05T21:45:06.695Z,81.81
2023-04-05T21:50:09.299Z,82.92
2023-04-05T21:55:11.104Z,83.41
2023-04-05T22:00:12.825Z,83.89
2023-04-05T22:05:25.741Z,84.98
2023-04-05T22:10:36.486Z,85.74
2023-04-05T22:15:38.210Z,87.54
2023-04-05T22:20:39.843Z,86.86
2023-04-05T22:25:41.424Z,87.16
2023-04-05T22:30:44.439Z,87.65
2023-04-05T22:35:46.468Z,87.93
2023-04-05T22:40:48.121Z,88.98
2023-04-05T22:45:52.132Z,89.46
2023-04-05T22:50:53.790Z,89.26
2023-04-05T22:55:55.481Z,89.35
2023-04-05T23:00:57.110Z,90.42
2023-04-05T23:05:58.760Z,91.67
2023-04-05T23:11:00.389Z,90.80
2023-04-05T23:16:02.030Z,90.54
2023-04-05T23:21:03.875Z,90.79
2023-04-05T23:26:05.603Z,91.61
2023-04-05T23:31:07.320Z,91.58
2023-04-05T23:36:09.765Z,91.41
2023-04-05T23:41:11.428Z,91.23
2023-04-05T23:46:13.473Z,91.12
2023-04-05T23:51:15.139Z,91.52
2023-04-05T23:56:16.970Z,92.98
